AUA656 LOWW-EDDF
Flight info
| Callsign | AUA656 |
|---|---|
| Flight time | N/A |
| Altitude | 30000 |
| Route | LUGEM DCT SUBEN T161 DEBHI DEBHI1B |
| Aircraft | A321/M-SDE3FGHIRWY/LB1 |
Departure
| Time | 2026-05-04 15:43 |
|---|---|
| Airport | Vienna International Airport (LOWW) |
Arrival
| Time | N/A |
|---|---|
| Airport | Frankfurt Main Airport (EDDF) |
| Time | Latitude | Longitude | Altitude | Speed | Heading |
|---|---|---|---|---|---|
| 2026-05-04 15:01 | 48.11741 | 16.56679 | 614 ft | 0 kts | 25° |
| 2026-05-04 15:31 | 48.11700 | 16.56650 | 628 ft | 2 kts | 25° |
| 2026-05-04 15:31 | 48.11683 | 16.56633 | 626 ft | 4 kts | 68° |
| 2026-05-04 15:32 | 48.11692 | 16.56572 | 627 ft | 0 kts | 116° |
| 2026-05-04 15:36 | 48.11690 | 16.56577 | 628 ft | 3 kts | 116° |
| 2026-05-04 15:36 | 48.11669 | 16.56643 | 625 ft | 10 kts | 116° |
| 2026-05-04 15:36 | 48.11634 | 16.56751 | 617 ft | 13 kts | 116° |
| 2026-05-04 15:37 | 48.11589 | 16.56887 | 621 ft | 16 kts | 116° |
| 2026-05-04 15:37 | 48.11537 | 16.57048 | 619 ft | 18 kts | 116° |
| 2026-05-04 15:37 | 48.11477 | 16.57230 | 619 ft | 21 kts | 116° |
| 2026-05-04 15:37 | 48.11449 | 16.57318 | 626 ft | 10 kts | 116° |
| 2026-05-04 15:38 | 48.11451 | 16.57422 | 618 ft | 13 kts | 41° |
| 2026-05-04 15:38 | 48.11536 | 16.57498 | 619 ft | 16 kts | 29° |
| 2026-05-04 15:38 | 48.11645 | 16.57541 | 616 ft | 18 kts | 343° |
| 2026-05-04 15:38 | 48.11774 | 16.57486 | 627 ft | 20 kts | 344° |
| 2026-05-04 15:39 | 48.11905 | 16.57430 | 615 ft | 13 kts | 345° |
| 2026-05-04 15:39 | 48.11998 | 16.57419 | 619 ft | 15 kts | 43° |
| 2026-05-04 15:39 | 48.11996 | 16.57586 | 615 ft | 0 kts | 103° |
| 2026-05-04 15:40 | 48.11993 | 16.57603 | 615 ft | 9 kts | 103° |
| 2026-05-04 15:40 | 48.11971 | 16.57732 | 623 ft | 14 kts | 105° |
| 2026-05-04 15:41 | 48.11901 | 16.57849 | 620 ft | 16 kts | 161° |
| 2026-05-04 15:41 | 48.11895 | 16.57852 | 619 ft | 0 kts | 164° |
| 2026-05-04 15:43 | 48.11709 | 16.57932 | 622 ft | 65 kts | 163° |
| 2026-05-04 15:43 | 48.11055 | 16.58210 | 623 ft | 128 kts | 164° |
| 2026-05-04 15:43 | 48.10031 | 16.58648 | 699 ft | 170 kts | 163° |
| 2026-05-04 15:43 | 48.08877 | 16.59098 | 1405 ft | 173 kts | 165° |
| 2026-05-04 15:44 | 48.07704 | 16.59581 | 2002 ft | 179 kts | 166° |
| 2026-05-04 15:44 | 48.06484 | 16.60085 | 2348 ft | 190 kts | 169° |
| 2026-05-04 15:44 | 48.05138 | 16.60087 | 2664 ft | 203 kts | 194° |
| 2026-05-04 15:44 | 48.03856 | 16.59017 | 2953 ft | 224 kts | 223° |
| 2026-05-04 15:45 | 48.02994 | 16.56955 | 3369 ft | 246 kts | 242° |
| 2026-05-04 15:45 | 48.02469 | 16.54450 | 3970 ft | 258 kts | 256° |
| 2026-05-04 15:45 | 48.02392 | 16.51738 | 4793 ft | 264 kts | 267° |
| 2026-05-04 15:45 | 48.02455 | 16.48989 | 5554 ft | 266 kts | 268° |
| 2026-05-04 15:46 | 48.02506 | 16.46226 | 6352 ft | 266 kts | 269° |
| 2026-05-04 15:46 | 48.02531 | 16.44389 | 6813 ft | 268 kts | 269° |
| 2026-05-04 15:46 | 48.02566 | 16.40669 | 7693 ft | 272 kts | 269° |
| 2026-05-04 15:46 | 48.02589 | 16.37843 | 8424 ft | 273 kts | 269° |
| 2026-05-04 15:47 | 48.02812 | 16.35010 | 9104 ft | 278 kts | 278° |
| 2026-05-04 15:47 | 48.03187 | 16.32158 | 9778 ft | 280 kts | 278° |
| 2026-05-04 15:47 | 48.03576 | 16.29274 | 10283 ft | 289 kts | 278° |
| 2026-05-04 15:47 | 48.03975 | 16.26245 | 10533 ft | 306 kts | 278° |
| 2026-05-04 15:48 | 48.04252 | 16.24142 | 10688 ft | 317 kts | 278° |
| 2026-05-04 15:48 | 48.04685 | 16.20818 | 10904 ft | 334 kts | 279° |
| 2026-05-04 15:48 | 48.05613 | 16.13742 | 11548 ft | 356 kts | 278° |
| 2026-05-04 15:49 | 48.06089 | 16.10085 | 12092 ft | 360 kts | 279° |
| 2026-05-04 15:49 | 48.06726 | 16.05198 | 12888 ft | 363 kts | 278° |
| 2026-05-04 15:49 | 48.07205 | 16.01478 | 13479 ft | 366 kts | 278° |
| 2026-05-04 15:49 | 48.07530 | 15.98943 | 13857 ft | 368 kts | 278° |
| 2026-05-04 15:50 | 48.08010 | 15.95181 | 14377 ft | 370 kts | 278° |
| 2026-05-04 15:50 | 48.08485 | 15.91433 | 14862 ft | 373 kts | 278° |
| 2026-05-04 15:50 | 48.08998 | 15.87618 | 15361 ft | 376 kts | 281° |
| 2026-05-04 15:50 | 48.09638 | 15.83812 | 15855 ft | 379 kts | 282° |
| 2026-05-04 15:51 | 48.10298 | 15.79986 | 16361 ft | 381 kts | 282° |
| 2026-05-04 15:51 | 48.10959 | 15.76139 | 16877 ft | 383 kts | 282° |
| 2026-05-04 15:51 | 48.11620 | 15.72269 | 17397 ft | 385 kts | 282° |
| 2026-05-04 15:51 | 48.12284 | 15.68368 | 17879 ft | 388 kts | 282° |
| 2026-05-04 15:52 | 48.12954 | 15.64450 | 18344 ft | 390 kts | 282° |
| 2026-05-04 15:52 | 48.13615 | 15.60562 | 18746 ft | 392 kts | 282° |
| 2026-05-04 15:52 | 48.14289 | 15.56584 | 19158 ft | 395 kts | 282° |
| 2026-05-04 15:52 | 48.14962 | 15.52593 | 19555 ft | 398 kts | 283° |
| 2026-05-04 15:53 | 48.15641 | 15.48554 | 19915 ft | 401 kts | 283° |
| 2026-05-04 15:53 | 48.16323 | 15.44488 | 20305 ft | 404 kts | 283° |
| 2026-05-04 15:53 | 48.17009 | 15.40400 | 20697 ft | 406 kts | 283° |
| 2026-05-04 15:53 | 48.17623 | 15.36260 | 21083 ft | 408 kts | 281° |
| 2026-05-04 15:54 | 48.18198 | 15.32085 | 21482 ft | 410 kts | 281° |
| 2026-05-04 15:54 | 48.18769 | 15.27892 | 21854 ft | 412 kts | 280° |
| 2026-05-04 15:54 | 48.19341 | 15.23663 | 22230 ft | 415 kts | 281° |
| 2026-05-04 15:54 | 48.19919 | 15.19421 | 22596 ft | 417 kts | 281° |
| 2026-05-04 15:55 | 48.20492 | 15.15210 | 22958 ft | 419 kts | 281° |
| 2026-05-04 15:55 | 48.21075 | 15.10917 | 23321 ft | 421 kts | 281° |
| 2026-05-04 15:55 | 48.21658 | 15.06606 | 23642 ft | 423 kts | 281° |
| 2026-05-04 15:55 | 48.22233 | 15.02271 | 23933 ft | 425 kts | 280° |
| 2026-05-04 15:56 | 48.22812 | 14.97918 | 24227 ft | 426 kts | 281° |
| 2026-05-04 15:56 | 48.23392 | 14.93555 | 24529 ft | 428 kts | 281° |
| 2026-05-04 15:56 | 48.23985 | 14.89178 | 24816 ft | 429 kts | 281° |
| 2026-05-04 15:56 | 48.24574 | 14.84832 | 25094 ft | 431 kts | 281° |
| 2026-05-04 15:57 | 48.25164 | 14.80424 | 25375 ft | 432 kts | 281° |
| 2026-05-04 15:57 | 48.25753 | 14.75991 | 25650 ft | 434 kts | 281° |
| 2026-05-04 15:57 | 48.26342 | 14.71539 | 25925 ft | 435 kts | 281° |
| 2026-05-04 15:57 | 48.26928 | 14.67075 | 26234 ft | 436 kts | 280° |
| 2026-05-04 15:58 | 48.27512 | 14.62625 | 26607 ft | 434 kts | 280° |
| 2026-05-04 15:58 | 48.28093 | 14.58180 | 26976 ft | 433 kts | 280° |
| 2026-05-04 15:58 | 48.28667 | 14.53746 | 27346 ft | 432 kts | 280° |
| 2026-05-04 15:58 | 48.29241 | 14.49324 | 27712 ft | 431 kts | 281° |
| 2026-05-04 15:59 | 48.29814 | 14.44919 | 28077 ft | 430 kts | 280° |
| 2026-05-04 15:59 | 48.30384 | 14.40518 | 28439 ft | 429 kts | 280° |
| 2026-05-04 15:59 | 48.30939 | 14.36181 | 28797 ft | 428 kts | 280° |
| 2026-05-04 15:59 | 48.31497 | 14.31809 | 29154 ft | 427 kts | 280° |
| 2026-05-04 16:00 | 48.32056 | 14.27438 | 29523 ft | 425 kts | 280° |
| 2026-05-04 16:00 | 48.32613 | 14.23082 | 29867 ft | 424 kts | 280° |
| 2026-05-04 16:00 | 48.33714 | 14.14396 | 29911 ft | 423 kts | 279° |
| 2026-05-04 16:01 | 48.34810 | 14.05696 | 29899 ft | 423 kts | 280° |
| 2026-05-04 16:01 | 48.35895 | 13.97058 | 29898 ft | 424 kts | 279° |
| 2026-05-04 16:02 | 48.36983 | 13.88350 | 29907 ft | 424 kts | 279° |
| 2026-05-04 16:03 | 48.38599 | 13.75241 | 29890 ft | 425 kts | 279° |
| 2026-05-04 16:03 | 48.39669 | 13.66498 | 29902 ft | 425 kts | 279° |
| 2026-05-04 16:04 | 48.40725 | 13.57820 | 29903 ft | 425 kts | 279° |
| 2026-05-04 16:04 | 48.42307 | 13.44704 | 29909 ft | 424 kts | 279° |
| 2026-05-04 16:05 | 48.43355 | 13.35993 | 29896 ft | 422 kts | 279° |
| 2026-05-04 16:05 | 48.45207 | 13.27584 | 29896 ft | 425 kts | 290° |
| 2026-05-04 16:06 | 48.46309 | 13.23455 | 29898 ft | 425 kts | 290° |
| 2026-05-04 16:07 | 48.50661 | 13.06979 | 29906 ft | 424 kts | 290° |
| 2026-05-04 16:08 | 48.54990 | 12.90402 | 29902 ft | 425 kts | 289° |
| 2026-05-04 16:09 | 48.60375 | 12.69657 | 29913 ft | 424 kts | 289° |
| 2026-05-04 16:10 | 48.64609 | 12.53193 | 29910 ft | 421 kts | 289° |
| 2026-05-04 16:11 | 48.68833 | 12.36646 | 29915 ft | 421 kts | 289° |
| 2026-05-04 16:12 | 48.74992 | 12.11739 | 29918 ft | 421 kts | 281° |
| 2026-05-04 16:13 | 48.76918 | 11.94376 | 29934 ft | 419 kts | 277° |
| 2026-05-04 16:14 | 48.78778 | 11.76963 | 29936 ft | 418 kts | 277° |
| 2026-05-04 16:16 | 48.81057 | 11.55250 | 29935 ft | 416 kts | 277° |
| 2026-05-04 16:17 | 48.83272 | 11.33644 | 29938 ft | 415 kts | 277° |
| 2026-05-04 16:18 | 48.85690 | 11.21080 | 29934 ft | 421 kts | 300° |
| 2026-05-04 16:18 | 48.87509 | 11.17592 | 29937 ft | 425 kts | 311° |
| 2026-05-04 16:19 | 48.98020 | 11.03027 | 29960 ft | 427 kts | 314° |
| 2026-05-04 16:20 | 49.04581 | 10.93832 | 29666 ft | 423 kts | 314° |
| 2026-05-04 16:20 | 49.08828 | 10.87855 | 29091 ft | 411 kts | 313° |
| 2026-05-04 16:21 | 49.15049 | 10.79053 | 28262 ft | 406 kts | 313° |
| 2026-05-04 16:22 | 49.19166 | 10.73202 | 27728 ft | 402 kts | 313° |
| 2026-05-04 16:22 | 49.25017 | 10.64088 | 26903 ft | 399 kts | 310° |
| 2026-05-04 16:23 | 49.30774 | 10.54991 | 25441 ft | 395 kts | 310° |
| 2026-05-04 16:24 | 49.37955 | 10.42535 | 23553 ft | 380 kts | 301° |
| 2026-05-04 16:25 | 49.40947 | 10.35953 | 22942 ft | 374 kts | 301° |
| 2026-05-04 16:26 | 49.46862 | 10.22946 | 21940 ft | 371 kts | 301° |
| 2026-05-04 16:26 | 49.51254 | 10.13256 | 21161 ft | 366 kts | 301° |
| 2026-05-04 16:27 | 49.54147 | 10.06856 | 20667 ft | 362 kts | 301° |
| 2026-05-04 16:28 | 49.58410 | 9.97402 | 19629 ft | 353 kts | 301° |
| 2026-05-04 16:28 | 49.62541 | 9.88187 | 18427 ft | 347 kts | 300° |